createdAt,value
2018-09-08T20:57:30.071Z,2.70
2018-09-08T20:59:59.415Z,3.13
2018-09-08T21:02:28.774Z,2.20
2018-09-08T21:04:58.248Z,2.47
2018-09-08T21:07:27.606Z,3.00
2018-09-08T21:09:57.111Z,3.70
2018-09-08T21:12:26.511Z,2.77
2018-09-08T21:14:55.873Z,2.83
2018-09-08T21:17:25.273Z,3.00
2018-09-08T21:19:54.627Z,2.90
2018-09-08T21:22:24.038Z,2.50
2018-09-08T21:24:53.562Z,2.40
2018-09-08T21:27:23.046Z,2.77
2018-09-08T21:29:52.372Z,2.80
2018-09-08T21:32:21.802Z,2.50
2018-09-08T21:34:51.167Z,3.07
2018-09-08T21:37:20.649Z,2.50
2018-09-08T21:39:50.075Z,2.13
2018-09-08T21:42:19.434Z,2.50
2018-09-08T21:44:48.839Z,1.87
2018-09-08T21:47:18.327Z,2.73
2018-09-08T21:49:47.698Z,1.87
2018-09-08T21:52:17.134Z,2.07
2018-09-08T21:54:46.714Z,2.20
2018-09-08T21:57:16.059Z,2.00
2018-09-08T21:59:45.583Z,2.03
2018-09-08T22:02:14.978Z,1.80
2018-09-08T22:04:44.421Z,1.63
2018-09-08T22:07:13.936Z,1.30
2018-09-08T22:09:43.769Z,1.60
2018-09-08T22:12:13.884Z,1.40
2018-09-08T22:14:43.217Z,2.17
2018-09-08T22:17:21.045Z,2.07
2018-09-08T22:19:50.924Z,1.47
2018-09-08T22:22:20.300Z,1.83
2018-09-08T22:24:49.706Z,1.50
2018-09-08T22:27:19.234Z,2.60
2018-09-08T22:29:48.605Z,1.70
2018-09-08T22:32:18.052Z,2.70
2018-09-08T22:34:47.623Z,2.30
2018-09-08T22:37:16.991Z,2.67
2018-09-08T22:39:46.426Z,2.70
2018-09-08T22:42:16.881Z,2.40
2018-09-08T22:44:46.279Z,2.17
2018-09-08T22:47:16.087Z,3.00
2018-09-08T22:49:45.540Z,4.60
2018-09-08T22:52:15.210Z,4.90
2018-09-08T22:54:44.652Z,4.63
2018-09-08T22:57:14.275Z,4.57
2018-09-08T22:59:43.753Z,4.57
2018-09-08T23:02:13.688Z,4.17
2018-09-08T23:04:43.051Z,4.17
2018-09-08T23:07:12.706Z,5.10
2018-09-08T23:09:42.546Z,4.33
2018-09-08T23:12:12.897Z,5.30
2018-09-08T23:14:42.310Z,6.57
2018-09-08T23:17:11.786Z,6.50
2018-09-08T23:19:41.217Z,8.07
2018-09-08T23:22:10.590Z,7.90
2018-09-08T23:24:41.057Z,7.97
2018-09-08T23:27:10.381Z,8.10
2018-09-08T23:29:39.789Z,8.73
2018-09-08T23:32:09.230Z,7.17
2018-09-08T23:34:38.648Z,6.30
2018-09-08T23:37:08.006Z,6.67
2018-09-08T23:39:37.488Z,6.20
2018-09-08T23:42:06.921Z,6.37
2018-09-08T23:44:39.098Z,4.80
2018-09-08T23:47:08.609Z,5.93
2018-09-08T23:49:38.090Z,5.30
2018-09-08T23:52:07.853Z,5.83
2018-09-08T23:54:37.372Z,5.03
2018-09-08T23:57:07.117Z,5.60
2018-09-08T23:59:36.475Z,4.90
